sensor_id;sensor_type;location;lat;lon;timestamp;temperature;humidity
57030;DHT22;42920;45.306;20.448;2023-02-07T00:01:55;13.70;2201.60
57030;DHT22;42920;45.306;20.448;2023-02-07T00:04:21;13.60;2201.60
57030;DHT22;42920;45.306;20.448;2023-02-07T00:06:46;13.60;2201.60
57030;DHT22;42920;45.306;20.448;2023-02-07T00:09:12;13.70;2201.60
57030;DHT22;42920;45.306;20.448;2023-02-07T00:11:38;13.60;2201.60
57030;DHT22;42920;45.306;20.448;2023-02-07T00:14:07;13.70;2201.60
57030;DHT22;42920;45.306;20.448;2023-02-07T00:16:33;13.70;2201.60
57030;DHT22;42920;45.306;20.448;2023-02-07T00:18:59;13.70;2201.60
57030;DHT22;42920;45.306;20.448;2023-02-07T00:21:26;38.40;2201.60
57030;DHT22;42920;45.306;20.448;2023-02-07T00:23:52;38.40;2201.60
57030;DHT22;42920;45.306;20.448;2023-02-07T00:26:20;38.40;2201.60
57030;DHT22;42920;45.306;20.448;2023-02-07T00:28:46;38.40;2201.60
57030;DHT22;42920;45.306;20.448;2023-02-07T00:31:18;38.50;2201.60
57030;DHT22;42920;45.306;20.448;2023-02-07T00:33:46;38.60;2201.60
57030;DHT22;42920;45.306;20.448;2023-02-07T00:36:18;38.60;2201.60
57030;DHT22;42920;45.306;20.448;2023-02-07T00:38:45;38.70;2201.60
57030;DHT22;42920;45.306;20.448;2023-02-07T00:41:11;38.70;2201.60
57030;DHT22;42920;45.306;20.448;2023-02-07T00:43:43;38.50;2201.60
57030;DHT22;42920;45.306;20.448;2023-02-07T00:46:10;38.60;2201.60
57030;DHT22;42920;45.306;20.448;2023-02-07T00:48:36;38.70;2201.60
57030;DHT22;42920;45.306;20.448;2023-02-07T00:51:05;38.70;2201.60
57030;DHT22;42920;45.306;20.448;2023-02-07T00:53:30;38.70;2201.60
57030;DHT22;42920;45.306;20.448;2023-02-07T00:55:56;38.80;2201.60
57030;DHT22;42920;45.306;20.448;2023-02-07T00:58:22;38.90;2201.60
57030;DHT22;42920;45.306;20.448;2023-02-07T01:00:48;38.90;2201.60
57030;DHT22;42920;45.306;20.448;2023-02-07T01:03:14;38.90;2201.60
57030;DHT22;42920;45.306;20.448;2023-02-07T01:05:40;38.90;2201.60
57030;DHT22;42920;45.306;20.448;2023-02-07T01:08:06;39.00;2201.60
57030;DHT22;42920;45.306;20.448;2023-02-07T01:10:31;38.90;2201.60
57030;DHT22;42920;45.306;20.448;2023-02-07T01:12:57;39.00;2201.60
57030;DHT22;42920;45.306;20.448;2023-02-07T01:15:23;38.80;2201.60
57030;DHT22;42920;45.306;20.448;2023-02-07T01:17:49;38.80;2201.60
57030;DHT22;42920;45.306;20.448;2023-02-07T01:20:14;38.70;2201.60
57030;DHT22;42920;45.306;20.448;2023-02-07T01:22:40;38.60;2201.60
57030;DHT22;42920;45.306;20.448;2023-02-07T01:25:06;38.60;2201.60
57030;DHT22;42920;45.306;20.448;2023-02-07T01:27:33;38.80;2201.60
57030;DHT22;42920;45.306;20.448;2023-02-07T01:29:59;38.80;2201.60
57030;DHT22;42920;45.306;20.448;2023-02-07T01:32:25;38.80;2201.60
57030;DHT22;42920;45.306;20.448;2023-02-07T01:34:50;39.00;2201.60
57030;DHT22;42920;45.306;20.448;2023-02-07T01:37:16;38.90;2201.60
57030;DHT22;42920;45.306;20.448;2023-02-07T01:39:41;39.00;2201.60
57030;DHT22;42920;45.306;20.448;2023-02-07T01:42:12;38.90;2201.60
57030;DHT22;42920;45.306;20.448;2023-02-07T01:47:16;38.90;2201.60
57030;DHT22;42920;45.306;20.448;2023-02-07T01:49:43;38.80;2201.60
57030;DHT22;42920;45.306;20.448;2023-02-07T01:52:13;38.90;2201.60
57030;DHT22;42920;45.306;20.448;2023-02-07T01:54:42;39.00;2201.60
57030;DHT22;42920;45.306;20.448;2023-02-07T01:57:12;38.80;2201.60
57030;DHT22;42920;45.306;20.448;2023-02-07T01:59:39;39.00;2201.60
57030;DHT22;42920;45.306;20.448;2023-02-07T02:02:10;39.00;2201.60
57030;DHT22;42920;45.306;20.448;2023-02-07T02:04:37;39.10;2201.60
57030;DHT22;42920;45.306;20.448;2023-02-07T02:07:05;38.90;2201.60
57030;DHT22;42920;45.306;20.448;2023-02-07T02:09:31;38.90;2201.60
57030;DHT22;42920;45.306;20.448;2023-02-07T02:17:23;39.00;2201.60
57030;DHT22;42920;45.306;20.448;2023-02-07T02:23:23;39.10;2201.60
57030;DHT22;42920;45.306;20.448;2023-02-07T02:31:56;39.20;2201.60
57030;DHT22;42920;45.306;20.448;2023-02-07T02:37:31;39.10;2201.60
57030;DHT22;42920;45.306;20.448;2023-02-07T02:45:28;39.20;2201.60
57030;DHT22;42920;45.306;20.448;2023-02-07T02:47:55;64.10;2201.60
57030;DHT22;42920;45.306;20.448;2023-02-07T02:50:26;64.00;2201.60
57030;DHT22;42920;45.306;20.448;2023-02-07T02:52:53;39.30;2201.60
57030;DHT22;42920;45.306;20.448;2023-02-07T02:55:27;39.20;2201.60
57030;DHT22;42920;45.306;20.448;2023-02-07T02:58:13;39.30;2201.60
57030;DHT22;42920;45.306;20.448;2023-02-07T03:01:00;39.20;2201.60
57030;DHT22;42920;45.306;20.448;2023-02-07T03:06:32;64.00;2201.60
57030;DHT22;42920;45.306;20.448;2023-02-07T03:09:24;64.00;2201.60
57030;DHT22;42920;45.306;20.448;2023-02-07T03:11:55;64.10;2201.60
57030;DHT22;42920;45.306;20.448;2023-02-07T03:17:27;64.10;2201.60
57030;DHT22;42920;45.306;20.448;2023-02-07T03:20:19;64.00;2201.60
57030;DHT22;42920;45.306;20.448;2023-02-07T03:22:48;64.20;2201.60
57030;DHT22;42920;45.306;20.448;2023-02-07T03:25:16;64.00;2201.60
57030;DHT22;42920;45.306;20.448;2023-02-07T03:27:44;64.10;2201.60
57030;DHT22;42920;45.306;20.448;2023-02-07T03:30:13;64.00;2201.60
57030;DHT22;42920;45.306;20.448;2023-02-07T03:32:41;39.30;2201.60
57030;DHT22;42920;45.306;20.448;2023-02-07T03:35:24;64.20;2201.60
57030;DHT22;42920;45.306;20.448;2023-02-07T03:38:00;64.10;2201.60
57030;DHT22;42920;45.306;20.448;2023-02-07T03:40:38;39.30;2201.60
57030;DHT22;42920;45.306;20.448;2023-02-07T03:43:14;64.00;2201.60
57030;DHT22;42920;45.306;20.448;2023-02-07T03:45:41;39.10;2201.60
57030;DHT22;42920;45.306;20.448;2023-02-07T03:48:07;38.90;2201.60
57030;DHT22;42920;45.306;20.448;2023-02-07T03:50:32;38.80;2201.60
57030;DHT22;42920;45.306;20.448;2023-02-07T03:52:58;38.70;2201.60
57030;DHT22;42920;45.306;20.448;2023-02-07T03:55:24;38.90;2201.60
57030;DHT22;42920;45.306;20.448;2023-02-07T03:57:49;38.90;2201.60
57030;DHT22;42920;45.306;20.448;2023-02-07T04:00:15;38.80;2201.60
57030;DHT22;42920;45.306;20.448;2023-02-07T04:02:40;38.90;2201.60
57030;DHT22;42920;45.306;20.448;2023-02-07T04:05:06;39.00;2201.60
57030;DHT22;42920;45.306;20.448;2023-02-07T04:07:32;38.90;2201.60
57030;DHT22;42920;45.306;20.448;2023-02-07T04:09:58;38.80;2201.60
57030;DHT22;42920;45.306;20.448;2023-02-07T04:12:24;38.90;2201.60
57030;DHT22;42920;45.306;20.448;2023-02-07T04:14:50;39.00;2201.60
57030;DHT22;42920;45.306;20.448;2023-02-07T04:17:16;38.80;2201.60
57030;DHT22;42920;45.306;20.448;2023-02-07T04:19:41;38.70;2201.60
57030;DHT22;42920;45.306;20.448;2023-02-07T04:22:07;38.80;2201.60
57030;DHT22;42920;45.306;20.448;2023-02-07T04:24:35;39.00;2201.60
57030;DHT22;42920;45.306;20.448;2023-02-07T04:27:01;39.30;2201.60
57030;DHT22;42920;45.306;20.448;2023-02-07T04:29:26;39.30;2201.60
57030;DHT22;42920;45.306;20.448;2023-02-07T04:31:52;64.10;2201.60
57030;DHT22;42920;45.306;20.448;2023-02-07T04:34:18;64.00;2201.60
57030;DHT22;42920;45.306;20.448;2023-02-07T04:36:43;39.30;2201.60
57030;DHT22;42920;45.306;20.448;2023-02-07T04:39:09;39.20;2201.60
57030;DHT22;42920;45.306;20.448;2023-02-07T04:41:35;64.00;2201.60
57030;DHT22;42920;45.306;20.448;2023-02-07T04:44:00;64.00;2201.60
57030;DHT22;42920;45.306;20.448;2023-02-07T04:46:26;64.20;2201.60
57030;DHT22;42920;45.306;20.448;2023-02-07T04:48:53;64.30;2201.60
57030;DHT22;42920;45.306;20.448;2023-02-07T04:51:18;64.20;2201.60
57030;DHT22;42920;45.306;20.448;2023-02-07T04:53:44;64.20;2201.60
57030;DHT22;42920;45.306;20.448;2023-02-07T04:56:09;64.20;2201.60
57030;DHT22;42920;45.306;20.448;2023-02-07T04:58:35;64.30;2201.60
57030;DHT22;42920;45.306;20.448;2023-02-07T05:01:01;64.30;2201.60
57030;DHT22;42920;45.306;20.448;2023-02-07T05:03:26;64.30;2201.60
57030;DHT22;42920;45.306;20.448;2023-02-07T05:05:52;64.50;2201.60
57030;DHT22;42920;45.306;20.448;2023-02-07T05:08:18;64.50;2201.60
57030;DHT22;42920;45.306;20.448;2023-02-07T05:10:44;64.50;2201.60
57030;DHT22;42920;45.306;20.448;2023-02-07T05:13:10;64.50;2201.60
57030;DHT22;42920;45.306;20.448;2023-02-07T05:15:36;64.50;2201.60
57030;DHT22;42920;45.306;20.448;2023-02-07T05:18:01;64.50;2201.60
57030;DHT22;42920;45.306;20.448;2023-02-07T05:20:27;64.50;2201.60
57030;DHT22;42920;45.306;20.448;2023-02-07T05:22:53;64.50;2201.60
57030;DHT22;42920;45.306;20.448;2023-02-07T05:25:18;64.70;2201.60
57030;DHT22;42920;45.306;20.448;2023-02-07T05:27:44;64.70;2201.60
57030;DHT22;42920;45.306;20.448;2023-02-07T05:30:10;64.90;2201.60
57030;DHT22;42920;45.306;20.448;2023-02-07T05:32:36;64.90;2201.60
57030;DHT22;42920;45.306;20.448;2023-02-07T05:35:20;64.80;2201.60
57030;DHT22;42920;45.306;20.448;2023-02-07T05:37:45;64.80;2201.60
57030;DHT22;42920;45.306;20.448;2023-02-07T05:40:11;64.80;2201.60
57030;DHT22;42920;45.306;20.448;2023-02-07T05:42:39;64.80;2201.60
57030;DHT22;42920;45.306;20.448;2023-02-07T05:45:08;64.60;2201.60
57030;DHT22;42920;45.306;20.448;2023-02-07T05:47:34;64.60;2201.60
57030;DHT22;42920;45.306;20.448;2023-02-07T05:50:00;64.60;2201.60
57030;DHT22;42920;45.306;20.448;2023-02-07T05:52:26;64.50;2201.60
57030;DHT22;42920;45.306;20.448;2023-02-07T05:54:52;64.40;2201.60
57030;DHT22;42920;45.306;20.448;2023-02-07T05:57:17;64.30;2201.60
57030;DHT22;42920;45.306;20.448;2023-02-07T05:59:43;64.20;2201.60
57030;DHT22;42920;45.306;20.448;2023-02-07T06:02:09;64.00;2201.60
57030;DHT22;42920;45.306;20.448;2023-02-07T06:04:34;64.10;2201.60
57030;DHT22;42920;45.306;20.448;2023-02-07T06:07:00;64.00;2201.60
57030;DHT22;42920;45.306;20.448;2023-02-07T06:09:26;39.10;2201.60
57030;DHT22;42920;45.306;20.448;2023-02-07T06:11:51;39.10;2201.60
57030;DHT22;42920;45.306;20.448;2023-02-07T06:14:17;39.10;2201.60
57030;DHT22;42920;45.306;20.448;2023-02-07T06:16:43;39.00;2201.60
57030;DHT22;42920;45.306;20.448;2023-02-07T06:19:09;39.20;2201.60
57030;DHT22;42920;45.306;20.448;2023-02-07T06:21:35;38.90;2201.60
57030;DHT22;42920;45.306;20.448;2023-02-07T06:24:01;38.80;2201.60
57030;DHT22;42920;45.306;20.448;2023-02-07T06:26:26;38.70;2201.60
57030;DHT22;42920;45.306;20.448;2023-02-07T06:28:52;38.70;2201.60
57030;DHT22;42920;45.306;20.448;2023-02-07T06:31:18;38.50;2201.60
57030;DHT22;42920;45.306;20.448;2023-02-07T06:33:43;38.50;2201.60
57030;DHT22;42920;45.306;20.448;2023-02-07T06:36:09;38.60;2201.60
57030;DHT22;42920;45.306;20.448;2023-02-07T06:38:35;38.70;2201.60
57030;DHT22;42920;45.306;20.448;2023-02-07T06:41:00;39.10;2201.60
57030;DHT22;42920;45.306;20.448;2023-02-07T06:43:26;39.30;2201.60
57030;DHT22;42920;45.306;20.448;2023-02-07T06:45:51;39.10;2201.60
57030;DHT22;42920;45.306;20.448;2023-02-07T06:48:17;39.20;2201.60
57030;DHT22;42920;45.306;20.448;2023-02-07T06:50:43;39.20;2201.60
57030;DHT22;42920;45.306;20.448;2023-02-07T06:53:08;39.10;2201.60
57030;DHT22;42920;45.306;20.448;2023-02-07T06:55:38;39.10;2201.60
57030;DHT22;42920;45.306;20.448;2023-02-07T06:58:05;38.90;2201.60
57030;DHT22;42920;45.306;20.448;2023-02-07T07:00:31;39.00;2201.60
57030;DHT22;42920;45.306;20.448;2023-02-07T07:02:57;38.70;2201.60
57030;DHT22;42920;45.306;20.448;2023-02-07T07:05:25;38.50;2201.60
57030;DHT22;42920;45.306;20.448;2023-02-07T07:07:51;13.70;2201.60
57030;DHT22;42920;45.306;20.448;2023-02-07T07:10:17;13.60;2201.60
57030;DHT22;42920;45.306;20.448;2023-02-07T07:12:42;13.50;2201.60
57030;DHT22;42920;45.306;20.448;2023-02-07T07:15:08;13.60;2201.60
57030;DHT22;42920;45.306;20.448;2023-02-07T07:17:34;13.60;2201.60
57030;DHT22;42920;45.306;20.448;2023-02-07T07:19:59;38.50;2201.60
57030;DHT22;42920;45.306;20.448;2023-02-07T07:22:25;38.50;2201.60
57030;DHT22;42920;45.306;20.448;2023-02-07T07:24:51;38.60;2201.60
57030;DHT22;42920;45.306;20.448;2023-02-07T07:27:17;38.70;2201.60
57030;DHT22;42920;45.306;20.448;2023-02-07T07:29:42;38.80;2201.60
57030;DHT22;42920;45.306;20.448;2023-02-07T07:32:08;38.90;2201.60
57030;DHT22;42920;45.306;20.448;2023-02-07T07:34:36;38.80;2201.60
57030;DHT22;42920;45.306;20.448;2023-02-07T07:37:02;38.60;2201.60
57030;DHT22;42920;45.306;20.448;2023-02-07T07:39:28;38.70;2201.60
57030;DHT22;42920;45.306;20.448;2023-02-07T07:41:53;38.80;2201.60
57030;DHT22;42920;45.306;20.448;2023-02-07T08:12:24;39.00;2201.60
57030;DHT22;42920;45.306;20.448;2023-02-07T08:14:50;13.30;2201.60
57030;DHT22;42920;45.306;20.448;2023-02-07T08:17:16;13.30;2201.60
57030;DHT22;42920;45.306;20.448;2023-02-07T08:19:41;13.50;2201.60
57030;DHT22;42920;45.306;20.448;2023-02-07T08:22:07;13.20;2201.60
57030;DHT22;42920;45.306;20.448;2023-02-07T08:24:32;13.40;2201.60
57030;DHT22;42920;45.306;20.448;2023-02-07T08:27:00;13.30;2201.60
57030;DHT22;42920;45.306;20.448;2023-02-07T08:29:26;13.40;2201.60
57030;DHT22;42920;45.306;20.448;2023-02-07T08:31:51;13.40;2201.60
57030;DHT22;42920;45.306;20.448;2023-02-07T08:34:17;13.40;2201.60
57030;DHT22;42920;45.306;20.448;2023-02-07T08:36:48;13.40;2201.60
57030;DHT22;42920;45.306;20.448;2023-02-07T08:39:14;13.40;2201.60
57030;DHT22;42920;45.306;20.448;2023-02-07T08:41:40;13.40;2201.60
57030;DHT22;42920;45.306;20.448;2023-02-07T08:44:05;13.40;2201.60
57030;DHT22;42920;45.306;20.448;2023-02-07T08:46:31;13.30;2201.60
57030;DHT22;42920;45.306;20.448;2023-02-07T08:48:57;13.30;2201.60
57030;DHT22;42920;45.306;20.448;2023-02-07T08:51:22;13.40;2201.60
57030;DHT22;42920;45.306;20.448;2023-02-07T08:53:48;13.20;2201.60
57030;DHT22;42920;45.306;20.448;2023-02-07T08:56:14;13.10;2201.60
57030;DHT22;42920;45.306;20.448;2023-02-07T08:58:39;13.00;2201.60
57030;DHT22;42920;45.306;20.448;2023-02-07T09:01:05;12.90;2201.60
57030;DHT22;42920;45.306;20.448;2023-02-07T09:03:38;0.00;2201.60
57030;DHT22;42920;45.306;20.448;2023-02-07T09:06:04;12.90;2201.60
57030;DHT22;42920;45.306;20.448;2023-02-07T09:08:30;0.10;2201.60
57030;DHT22;42920;45.306;20.448;2023-02-07T09:10:56;0.30;2201.60
57030;DHT22;42920;45.306;20.448;2023-02-07T09:13:22;0.40;2201.60
57030;DHT22;42920;45.306;20.448;2023-02-07T09:15:52;0.20;2201.60
57030;DHT22;42920;45.306;20.448;2023-02-07T09:18:17;0.30;2201.60
57030;DHT22;42920;45.306;20.448;2023-02-07T09:20:43;0.20;2201.60
57030;DHT22;42920;45.306;20.448;2023-02-07T09:23:08;0.30;2201.60
57030;DHT22;42920;45.306;20.448;2023-02-07T09:25:45;0.40;2201.60
57030;DHT22;42920;45.306;20.448;2023-02-07T09:28:12;0.60;2201.60
57030;DHT22;42920;45.306;20.448;2023-02-07T09:30:42;0.80;2201.60
57030;DHT22;42920;45.306;20.448;2023-02-07T09:33:09;25.60;2201.60
57030;DHT22;42920;45.306;20.448;2023-02-07T09:35:40;25.90;2201.60
57030;DHT22;42920;45.306;20.448;2023-02-07T09:38:07;26.00;2201.60
57030;DHT22;42920;45.306;20.448;2023-02-07T09:40:34;26.00;2201.60
57030;DHT22;42920;45.306;20.448;2023-02-07T09:45:58;26.30;2201.60
57030;DHT22;42920;45.306;20.448;2023-02-07T09:48:54;51.20;2227.20
57030;DHT22;42920;45.306;20.448;2023-02-07T09:51:19;51.40;2227.20
57030;DHT22;42920;45.306;20.448;2023-02-07T09:53:56;51.60;2227.20
57030;DHT22;42920;45.306;20.448;2023-02-07T09:56:23;52.00;2227.20
57030;DHT22;42920;45.306;20.448;2023-02-07T09:59:01;52.10;2227.20
57030;DHT22;42920;45.306;20.448;2023-02-07T10:01:35;76.90;2227.20
57030;DHT22;42920;45.306;20.448;2023-02-07T10:06:46;77.10;2227.20
57030;DHT22;42920;45.306;20.448;2023-02-07T10:09:17;77.40;2201.60
57030;DHT22;42920;45.306;20.448;2023-02-07T10:11:51;77.30;2176.00
57030;DHT22;42920;45.306;20.448;2023-02-07T10:27:35;102.50;2048.00
57030;DHT22;42920;45.306;20.448;2023-02-07T10:32:49;102.70;2022.40
57030;DHT22;42920;45.306;20.448;2023-02-07T10:35:23;102.70;1996.80
57030;DHT22;42920;45.306;20.448;2023-02-07T10:37:55;102.90;1996.80
57030;DHT22;42920;45.306;20.448;2023-02-07T10:40:41;102.80;1996.80
57030;DHT22;42920;45.306;20.448;2023-02-07T10:43:27;102.90;1971.20
57030;DHT22;42920;45.306;20.448;2023-02-07T10:46:04;102.80;1971.20
57030;DHT22;42920;45.306;20.448;2023-02-07T10:48:31;103.00;1996.80
57030;DHT22;42920;45.306;20.448;2023-02-07T10:50:59;102.90;1996.80
57030;DHT22;42920;45.306;20.448;2023-02-07T10:56:30;103.10;1945.60
57030;DHT22;42920;45.306;20.448;2023-02-07T10:58:58;103.20;1945.60
57030;DHT22;42920;45.306;20.448;2023-02-07T11:01:28;103.20;1945.60
57030;DHT22;42920;45.306;20.448;2023-02-07T11:03:54;103.30;1945.60
57030;DHT22;42920;45.306;20.448;2023-02-07T11:06:24;103.20;1920.00
57030;DHT22;42920;45.306;20.448;2023-02-07T11:11:49;103.00;1945.60
57030;DHT22;42920;45.306;20.448;2023-02-07T11:14:18;103.10;1920.00
57030;DHT22;42920;45.306;20.448;2023-02-07T11:16:46;103.10;1920.00
57030;DHT22;42920;45.306;20.448;2023-02-07T11:19:18;103.20;1920.00
57030;DHT22;42920;45.306;20.448;2023-02-07T11:21:46;103.30;1894.40
57030;DHT22;42920;45.306;20.448;2023-02-07T11:27:06;103.10;1920.00
57030;DHT22;42920;45.306;20.448;2023-02-07T11:29:37;103.20;1920.00
57030;DHT22;42920;45.306;20.448;2023-02-07T11:32:04;103.10;1894.40
57030;DHT22;42920;45.306;20.448;2023-02-07T11:34:50;103.00;1920.00
57030;DHT22;42920;45.306;20.448;2023-02-07T11:39:45;102.80;1920.00
57030;DHT22;42920;45.306;20.448;2023-02-07T11:42:13;102.80;1945.60
57030;DHT22;42920;45.306;20.448;2023-02-07T11:44:41;102.70;1945.60
57030;DHT22;42920;45.306;20.448;2023-02-07T11:47:12;102.70;1945.60
57030;DHT22;42920;45.306;20.448;2023-02-07T11:49:46;102.90;1971.20
57030;DHT22;42920;45.306;20.448;2023-02-07T11:52:14;102.80;1971.20
57030;DHT22;42920;45.306;20.448;2023-02-07T11:54:45;102.80;1945.60
57030;DHT22;42920;45.306;20.448;2023-02-07T11:57:13;102.80;1945.60
57030;DHT22;42920;45.306;20.448;2023-02-07T12:00:15;102.90;1945.60
57030;DHT22;42920;45.306;20.448;2023-02-07T12:02:50;103.00;1920.00
57030;DHT22;42920;45.306;20.448;2023-02-07T12:05:26;103.10;1920.00
57030;DHT22;42920;45.306;20.448;2023-02-07T12:07:59;103.30;1894.40
57030;DHT22;42920;45.306;20.448;2023-02-07T12:10:30;103.20;1894.40
57030;DHT22;42920;45.306;20.448;2023-02-07T12:15:50;103.10;1920.00
57030;DHT22;42920;45.306;20.448;2023-02-07T12:23:55;103.00;1894.40
57030;DHT22;42920;45.306;20.448;2023-02-07T12:29:36;102.90;1920.00
57030;DHT22;42920;45.306;20.448;2023-02-07T12:38:20;102.80;1894.40
57030;DHT22;42920;45.306;20.448;2023-02-07T12:41:01;102.80;1920.00
57030;DHT22;42920;45.306;20.448;2023-02-07T12:43:38;102.70;1894.40
57030;DHT22;42920;45.306;20.448;2023-02-07T12:46:34;102.80;1920.00
57030;DHT22;42920;45.306;20.448;2023-02-07T12:57:42;102.60;1894.40
57030;DHT22;42920;45.306;20.448;2023-02-07T13:00:45;102.70;1920.00
57030;DHT22;42920;45.306;20.448;2023-02-07T13:11:34;102.50;1920.00
57030;DHT22;42920;45.306;20.448;2023-02-07T13:14:33;102.40;1920.00
57030;DHT22;42920;45.306;20.448;2023-02-07T13:19:54;102.40;1945.60
57030;DHT22;42920;45.306;20.448;2023-02-07T13:22:34;102.40;1971.20
57030;DHT22;42920;45.306;20.448;2023-02-07T13:25:04;102.40;1945.60
57030;DHT22;42920;45.306;20.448;2023-02-07T13:27:33;77.60;1971.20
57030;DHT22;42920;45.306;20.448;2023-02-07T13:30:01;77.70;1971.20
57030;DHT22;42920;45.306;20.448;2023-02-07T13:32:27;102.40;1945.60
57030;DHT22;42920;45.306;20.448;2023-02-07T13:35:12;77.70;1971.20
57030;DHT22;42920;45.306;20.448;2023-02-07T13:37:50;102.40;1945.60
57030;DHT22;42920;45.306;20.448;2023-02-07T13:43:38;77.60;1945.60
57030;DHT22;42920;45.306;20.448;2023-02-07T13:48:55;77.20;1945.60
57030;DHT22;42920;45.306;20.448;2023-02-07T13:57:21;77.30;1945.60
57030;DHT22;42920;45.306;20.448;2023-02-07T14:00:17;77.30;1971.20
57030;DHT22;42920;45.306;20.448;2023-02-07T14:02:48;77.30;1971.20
57030;DHT22;42920;45.306;20.448;2023-02-07T14:05:29;77.10;1971.20
57030;DHT22;42920;45.306;20.448;2023-02-07T14:21:00;76.90;2073.60
57030;DHT22;42920;45.306;20.448;2023-02-07T14:31:59;76.80;2099.20
57030;DHT22;42920;45.306;20.448;2023-02-07T14:34:30;76.80;2073.60
57030;DHT22;42920;45.306;20.448;2023-02-07T14:36:57;52.10;2073.60
57030;DHT22;42920;45.306;20.448;2023-02-07T14:42:01;76.80;2099.20
57030;DHT22;42920;45.306;20.448;2023-02-07T14:44:36;77.00;2073.60
57030;DHT22;42920;45.306;20.448;2023-02-07T14:47:05;76.90;2073.60
57030;DHT22;42920;45.306;20.448;2023-02-07T14:49:33;76.90;2099.20
57030;DHT22;42920;45.306;20.448;2023-02-07T14:52:11;76.90;2073.60
57030;DHT22;42920;45.306;20.448;2023-02-07T15:00:36;52.10;2099.20
57030;DHT22;42920;45.306;20.448;2023-02-07T15:03:15;76.80;2124.80
57030;DHT22;42920;45.306;20.448;2023-02-07T15:05:53;52.00;2124.80
57030;DHT22;42920;45.306;20.448;2023-02-07T15:08:25;52.00;2124.80
57030;DHT22;42920;45.306;20.448;2023-02-07T15:11:27;52.00;2124.80
57030;DHT22;42920;45.306;20.448;2023-02-07T15:13:59;51.90;2124.80
57030;DHT22;42920;45.306;20.448;2023-02-07T15:16:30;51.80;2150.40
57030;DHT22;42920;45.306;20.448;2023-02-07T15:19:25;51.70;2124.80
57030;DHT22;42920;45.306;20.448;2023-02-07T15:21:55;51.70;2124.80
57030;DHT22;42920;45.306;20.448;2023-02-07T15:24:23;51.70;2124.80
57030;DHT22;42920;45.306;20.448;2023-02-07T15:26:59;51.80;2150.40
57030;DHT22;42920;45.306;20.448;2023-02-07T15:29:34;51.80;2124.80
57030;DHT22;42920;45.306;20.448;2023-02-07T15:31:59;51.80;2150.40
57030;DHT22;42920;45.306;20.448;2023-02-07T15:34:26;51.80;2150.40
57030;DHT22;42920;45.306;20.448;2023-02-07T15:36:58;51.80;2150.40
57030;DHT22;42920;45.306;20.448;2023-02-07T15:39:27;51.60;2176.00
57030;DHT22;42920;45.306;20.448;2023-02-07T15:41:55;51.50;2201.60
57030;DHT22;42920;45.306;20.448;2023-02-07T15:44:29;51.60;2176.00
57030;DHT22;42920;45.306;20.448;2023-02-07T15:46:57;51.60;2176.00
57030;DHT22;42920;45.306;20.448;2023-02-07T15:49:28;51.50;2227.20
57030;DHT22;42920;45.306;20.448;2023-02-07T15:52:00;51.40;2227.20
57030;DHT22;42920;45.306;20.448;2023-02-07T15:54:27;51.50;2227.20
57030;DHT22;42920;45.306;20.448;2023-02-07T15:57:02;51.40;2227.20
57030;DHT22;42920;45.306;20.448;2023-02-07T15:59:30;51.30;2227.20
57030;DHT22;42920;45.306;20.448;2023-02-07T16:01:59;51.40;2227.20
57030;DHT22;42920;45.306;20.448;2023-02-07T16:04:29;51.40;2227.20
57030;DHT22;42920;45.306;20.448;2023-02-07T16:07:02;51.30;2227.20
57030;DHT22;42920;45.306;20.448;2023-02-07T16:09:37;51.30;2227.20
57030;DHT22;42920;45.306;20.448;2023-02-07T16:12:41;51.40;2227.20
57030;DHT22;42920;45.306;20.448;2023-02-07T16:15:38;51.30;2227.20
57030;DHT22;42920;45.306;20.448;2023-02-07T16:18:04;51.40;2227.20
57030;DHT22;42920;45.306;20.448;2023-02-07T16:20:33;51.30;2227.20
57030;DHT22;42920;45.306;20.448;2023-02-07T16:23:02;51.50;2227.20
57030;DHT22;42920;45.306;20.448;2023-02-07T16:25:33;51.20;2227.20
57030;DHT22;42920;45.306;20.448;2023-02-07T16:27:59;51.20;2227.20
57030;DHT22;42920;45.306;20.448;2023-02-07T16:30:34;26.50;2201.60
57030;DHT22;42920;45.306;20.448;2023-02-07T16:33:07;51.20;2227.20
57030;DHT22;42920;45.306;20.448;2023-02-07T16:35:35;51.30;2227.20
57030;DHT22;42920;45.306;20.448;2023-02-07T16:38:01;26.50;2201.60
57030;DHT22;42920;45.306;20.448;2023-02-07T16:40:27;26.50;2201.60
57030;DHT22;42920;45.306;20.448;2023-02-07T16:42:53;26.40;2201.60
57030;DHT22;42920;45.306;20.448;2023-02-07T16:45:26;26.50;2201.60
57030;DHT22;42920;45.306;20.448;2023-02-07T16:47:52;26.50;2201.60
57030;DHT22;42920;45.306;20.448;2023-02-07T16:50:21;51.20;2227.20
57030;DHT22;42920;45.306;20.448;2023-02-07T16:52:48;26.40;2201.60
57030;DHT22;42920;45.306;20.448;2023-02-07T16:55:15;26.40;2201.60
57030;DHT22;42920;45.306;20.448;2023-02-07T16:57:43;26.40;2201.60
57030;DHT22;42920;45.306;20.448;2023-02-07T17:00:13;26.20;2201.60
57030;DHT22;42920;45.306;20.448;2023-02-07T17:02:40;26.40;2201.60
57030;DHT22;42920;45.306;20.448;2023-02-07T17:05:06;26.50;2201.60
57030;DHT22;42920;45.306;20.448;2023-02-07T17:07:31;26.50;2201.60
57030;DHT22;42920;45.306;20.448;2023-02-07T17:09:57;26.50;2201.60
57030;DHT22;42920;45.306;20.448;2023-02-07T17:12:23;26.50;2201.60
57030;DHT22;42920;45.306;20.448;2023-02-07T17:14:48;26.40;2201.60
57030;DHT22;42920;45.306;20.448;2023-02-07T17:17:14;26.30;2201.60
57030;DHT22;42920;45.306;20.448;2023-02-07T17:19:40;26.40;2201.60
57030;DHT22;42920;45.306;20.448;2023-02-07T17:22:06;26.40;2201.60
57030;DHT22;42920;45.306;20.448;2023-02-07T17:24:32;26.40;2201.60
57030;DHT22;42920;45.306;20.448;2023-02-07T17:26:58;26.20;2201.60
57030;DHT22;42920;45.306;20.448;2023-02-07T17:29:23;26.30;2201.60
57030;DHT22;42920;45.306;20.448;2023-02-07T17:31:49;26.20;2201.60
57030;DHT22;42920;45.306;20.448;2023-02-07T17:34:15;26.40;2201.60
57030;DHT22;42920;45.306;20.448;2023-02-07T17:36:46;26.40;2201.60
57030;DHT22;42920;45.306;20.448;2023-02-07T17:39:14;26.50;2201.60
57030;DHT22;42920;45.306;20.448;2023-02-07T17:41:40;51.20;2227.20
57030;DHT22;42920;45.306;20.448;2023-02-07T17:44:06;51.30;2227.20
57030;DHT22;42920;45.306;20.448;2023-02-07T17:46:32;51.30;2227.20
57030;DHT22;42920;45.306;20.448;2023-02-07T17:48:57;51.30;2227.20
57030;DHT22;42920;45.306;20.448;2023-02-07T17:51:25;51.20;2227.20